Dutton, Michigan
Current Conditions -  °F | °C
As of 1:53 PM on Thursday 23 Oct 2014 (Local Time) from KGRR Reporting Station
Scattered Clouds Scattered Clouds  
Wind Chill: 56°   Ceiling: Unl
Heat Index: 56°   Visibility: 10mi
Dew Point: 39°   Wind: 6mph
Humidity: 53%   Direction: 260°W
Pressure: 30.19"   Gusts: NA
Location:  42.7912°N, 85.5517°W
Report Text: KGRR 231753Z 26005KT 10SM FEW020 SCT230 13/04 A3019 RMK AO2 SLP227 I6000 T01330039 10133 21017 58019
Loading
Personal Weather Stations






























Interactive Weather Map
Tropical Storm Tracking
New forecast layout! Learn more

10-Day Weather Forecast

Advertisements
Track Severe Weather on mobile